Time;durP1;ratioP1;P1;durP2;ratioP2;P2;SDS_P1;SDS_P2;PMS_P1;PMS_P2;Temp;Humidity;BMP_temperature;BMP_pressure;BME280_temperature;BME280_humidity;BME280_pressure;Samples;Min_cycle;Max_cycle;Signal;HPM_P1;HPM_P2
2022/06/23 00:02:28;;;;;;;0.68;0.60;;;;;;;17.30;50.75;99977.75;6216298;23;20048;-73
2022/06/23 00:04:58;;;;;;;1.42;0.50;;;;;;;17.25;51.15;99971.22;6187449;23;20066;-74
2022/06/23 00:07:30;;;;;;;0.30;0.30;;;;;;;17.20;51.09;99967.81;6215449;23;20055;-72
2022/06/23 00:09:57;;;;;;;0.30;0.30;;;;;;;17.17;51.13;99952.69;6216962;23;20050;-72
2022/06/23 00:12:41;;;;;;;0.73;0.40;;;;;;;17.23;51.22;99965.22;6215556;23;20004;-75
2022/06/23 00:15:06;;;;;;;0.95;0.52;;;;;;;17.24;51.64;99969.63;6215904;23;20001;-72
2022/06/23 00:17:46;;;;;;;0.38;0.38;;;;;;;17.35;51.31;99969.31;6216056;23;20093;-73
2022/06/23 00:20:44;;;;;;;1.00;0.55;;;;;;;17.28;51.24;99939.38;6190458;23;20008;-71
2022/06/23 00:23:15;;;;;;;0.50;0.50;;;;;;;17.31;51.33;99954.50;6216673;23;20004;-72
2022/06/23 00:25:49;;;;;;;0.50;0.40;;;;;;;17.31;51.34;99969.13;6217152;23;20004;-74
2022/06/23 00:28:25;;;;;;;0.50;0.50;;;;;;;17.20;51.64;99967.81;6187953;23;20335;-72
2022/06/23 00:31:03;;;;;;;0.68;0.68;;;;;;;17.08;51.94;99965.66;6191135;23;20008;-73
2022/06/23 00:33:38;;;;;;;0.88;0.80;;;;;;;16.93;52.51;99964.16;6190130;23;20001;-71
2022/06/23 00:36:16;;;;;;;1.27;0.70;;;;;;;16.88;52.45;99958.78;6216658;23;20012;-70
2022/06/23 00:38:41;;;;;;;0.73;0.73;;;;;;;16.77;52.79;99949.94;6216206;23;20000;-70
2022/06/23 00:41:17;;;;;;;0.50;0.50;;;;;;;16.71;53.14;99943.75;6187500;23;20014;-71
2022/06/23 00:43:46;;;;;;;0.55;0.30;;;;;;;16.70;53.01;99952.34;6215394;23;20004;-71
2022/06/23 00:46:44;;;;;;;0.40;0.40;;;;;;;16.63;53.28;99955.59;6186591;23;20005;-71
2022/06/23 00:49:32;;;;;;;0.70;0.43;;;;;;;16.54;52.84;99947.25;6204480;23;20368;-71
2022/06/23 00:52:10;;;;;;;1.30;0.65;;;;;;;16.51;53.46;99947.06;6216821;23;20086;-70
2022/06/23 00:54:43;;;;;;;0.73;0.50;;;;;;;16.44;53.58;99947.53;6189921;23;20498;-71
2022/06/23 00:57:28;;;;;;;1.15;0.60;;;;;;;16.44;54.03;99950.31;6217530;23;20438;-71
2022/06/23 01:00:05;;;;;;;0.85;0.60;;;;;;;16.37;54.06;99942.47;6188854;23;20099;-71
2022/06/23 01:02:50;;;;;;;1.98;0.98;;;;;;;16.42;53.93;99952.53;6215915;23;20091;-73
2022/06/23 01:05:29;;;;;;;2.55;1.00;;;;;;;16.38;54.14;99948.78;6187876;23;20090;-71
2022/06/23 01:08:21;;;;;;;0.90;0.70;;;;;;;16.33;54.25;99946.19;6216449;23;20404;-73
2022/06/23 01:11:12;;;;;;;0.73;0.70;;;;;;;16.34;54.64;99950.53;6216135;23;19997;-70
2022/06/23 01:13:47;;;;;;;1.10;0.63;;;;;;;16.24;54.71;99948.88;6189803;23;20005;-72
2022/06/23 01:16:22;;;;;;;0.50;0.50;;;;;;;16.28;54.64;99952.66;6216357;23;20004;-71
2022/06/23 01:19:08;;;;;;;0.95;0.77;;;;;;;16.28;54.89;99949.06;6164942;23;20008;-71
2022/06/23 01:21:53;;;;;;;0.70;0.70;;;;;;;16.26;55.16;99951.34;6214247;23;20678;-71
2022/06/23 01:24:29;;;;;;;1.52;0.98;;;;;;;16.17;55.44;99943.81;6216066;23;20087;-73
2022/06/23 01:27:09;;;;;;;1.63;1.00;;;;;;;16.17;55.45;99941.06;6217606;23;20072;-73
2022/06/23 01:29:50;;;;;;;1.35;0.95;;;;;;;16.11;55.91;99936.81;6215927;23;19993;-72
2022/06/23 01:32:19;;;;;;;1.30;1.20;;;;;;;15.98;56.30;99924.72;6215279;23;20009;-72
2022/06/23 01:34:55;;;;;;;1.73;1.23;;;;;;;15.92;56.46;99930.69;6186293;23;20058;-75
2022/06/23 01:37:32;;;;;;;1.20;0.90;;;;;;;15.82;56.91;99920.72;6216151;23;20004;-72
2022/06/23 01:40:26;;;;;;;1.40;0.85;;;;;;;15.78;56.97;99923.28;6191888;23;20008;-73
2022/06/23 01:43:15;;;;;;;1.15;0.90;;;;;;;15.78;56.64;99926.03;6191684;23;20052;-74
2022/06/23 01:46:03;;;;;;;2.00;0.88;;;;;;;15.76;56.59;99922.75;6190486;23;20015;-72
2022/06/23 01:49:20;;;;;;;1.00;0.90;;;;;;;15.74;56.86;99908.47;6216815;23;20130;-72
2022/06/23 01:51:52;;;;;;;1.33;0.82;;;;;;;15.75;57.32;99909.28;6197963;23;20469;-72
2022/06/23 01:54:21;;;;;;;1.08;0.80;;;;;;;15.74;57.48;99913.16;6215159;23;20028;-69
2022/06/23 01:57:05;;;;;;;0.95;0.90;;;;;;;15.71;57.57;99914.59;6212968;23;20054;-71
2022/06/23 01:59:31;;;;;;;2.53;1.10;;;;;;;15.65;57.88;99911.16;6190528;23;20305;-72
2022/06/23 02:01:59;;;;;;;1.33;0.98;;;;;;;15.59;57.75;99911.59;6216313;23;20039;-71
2022/06/23 02:04:33;;;;;;;1.85;1.17;;;;;;;15.48;58.01;99908.28;6189617;23;20018;-71
2022/06/23 02:07:23;;;;;;;2.40;1.30;;;;;;;15.43;58.35;99906.44;6216447;23;19992;-71
2022/06/23 02:09:52;;;;;;;1.20;1.08;;;;;;;15.38;58.68;99903.81;6189730;23;20664;-71
2022/06/23 02:12:42;;;;;;;2.85;1.63;;;;;;;15.24;59.02;99889.25;6216888;23;19996;-72
2022/06/23 02:15:31;;;;;;;3.47;1.63;;;;;;;15.28;58.72;99901.28;6216995;23;20001;-72
2022/06/23 02:18:14;;;;;;;2.20;1.30;;;;;;;15.22;59.15;99900.59;6217360;23;20011;-72
2022/06/23 02:21:12;;;;;;;1.70;1.60;;;;;;;15.14;59.52;99904.91;6187861;23;20004;-72
2022/06/23 02:23:47;;;;;;;2.70;1.67;;;;;;;15.01;59.90;99897.47;6136424;23;20073;-71
2022/06/23 02:26:20;;;;;;;2.13;1.10;;;;;;;14.98;59.62;99906.34;6216924;23;20001;-71
2022/06/23 02:29:23;;;;;;;1.77;0.93;;;;;;;14.79;60.00;99885.28;6215719;23;19992;-73
2022/06/23 02:31:55;;;;;;;1.58;0.98;;;;;;;14.86;60.52;99893.09;6215435;23;20005;-72
2022/06/23 02:34:36;;;;;;;1.88;1.20;;;;;;;14.86;60.05;99901.34;6218376;23;19993;-72
2022/06/23 02:37:29;;;;;;;2.50;1.27;;;;;;;14.83;60.03;99897.31;6191943;23;20008;-70
2022/06/23 02:39:59;;;;;;;1.83;1.42;;;;;;;14.74;60.88;99881.81;6191926;23;20018;-71
2022/06/23 02:42:28;;;;;;;2.05;1.23;;;;;;;14.75;60.66;99889.75;6219331;23;20000;-70
2022/06/23 02:45:19;;;;;;;0.80;0.80;;;;;;;14.64;60.63;99880.06;6190938;23;20036;-71
2022/06/23 02:48:05;;;;;;;1.70;1.20;;;;;;;14.73;60.33;99897.50;6216364;23;20000;-74
2022/06/23 02:51:00;;;;;;;0.90;0.80;;;;;;;14.72;60.62;99898.63;6193125;23;20009;-72
2022/06/23 02:53:58;;;;;;;0.80;0.80;;;;;;;14.71;60.65;99876.94;6189779;23;20044;-70
2022/06/23 02:57:02;;;;;;;0.95;0.70;;;;;;;14.72;60.12;99867.53;6190662;23;20023;-71
2022/06/23 02:59:56;;;;;;;0.60;0.60;;;;;;;14.84;60.89;99887.91;6184957;23;20008;-70
2022/06/23 03:02:41;;;;;;;0.67;0.67;;;;;;;14.80;60.94;99870.38;6218696;23;20309;-71
2022/06/23 03:05:13;;;;;;;;;;;;;;;14.88;61.04;99876.28;6216590;23;20234;-71
2022/06/23 03:07:46;;;;;;;1.00;0.90;;;;;;;14.89;60.69;99875.97;6216726;23;19904;-70
2022/06/23 03:10:30;;;;;;;2.60;1.15;;;;;;;14.83;60.98;99875.28;6219003;23;20420;-73
2022/06/23 03:13:31;;;;;;;1.55;0.98;;;;;;;14.81;60.62;99866.50;6218611;23;20062;-73
2022/06/23 03:16:22;;;;;;;4.50;1.30;;;;;;;14.74;61.45;99863.34;6169161;23;20023;-73
2022/06/23 03:19:19;;;;;;;;;;;;;;;;;;;;;
2022/06/23 03:21:50;;;;;;;1.92;1.42;;;;;;;14.50;62.12;99860.81;6217743;23;20060;-71
2022/06/23 03:24:27;;;;;;;2.20;1.33;;;;;;;14.47;62.26;99867.72;6191692;23;20004;-71
2022/06/23 03:27:13;;;;;;;;;;;;;;;;;;;;;
2022/06/23 03:29:50;;;;;;;2.58;1.00;;;;;;;14.49;62.20;99868.22;6217836;23;20031;-71
2022/06/23 03:32:47;;;;;;;1.40;0.93;;;;;;;14.47;62.47;99864.97;6192276;23;20024;-71
2022/06/23 03:35:21;;;;;;;1.10;0.90;;;;;;;14.46;62.78;99877.09;6217130;23;20011;-70
2022/06/23 03:38:14;;;;;;;1.55;1.20;;;;;;;14.33;62.39;99877.91;6218017;23;20539;-71
2022/06/23 03:44:05;;;;;;;1.33;1.05;;;;;;;14.08;63.18;99866.25;6194951;23;20023;-71
2022/06/23 03:46:43;;;;;;;1.95;1.30;;;;;;;13.99;62.98;99851.59;6218351;23;20005;-71
2022/06/23 03:49:29;;;;;;;1.15;1.02;;;;;;;14.02;63.21;99852.91;6219058;23;20028;-70
2022/06/23 03:51:58;;;;;;;1.20;1.10;;;;;;;14.06;63.25;99862.19;6216839;23;20020;-74
2022/06/23 03:54:36;;;;;;;0.90;0.80;;;;;;;14.07;63.86;99855.56;6191571;23;20051;-72
2022/06/23 03:57:14;;;;;;;1.30;0.80;;;;;;;14.16;63.72;99863.94;6218522;23;19997;-73
2022/06/23 03:59:59;;;;;;;0.80;0.70;;;;;;;14.01;63.24;99843.84;6217098;23;20008;-72
2022/06/23 04:02:30;;;;;;;0.90;0.88;;;;;;;14.13;63.84;99855.19;6218871;23;20001;-72
2022/06/23 04:04:58;;;;;;;1.08;0.98;;;;;;;14.18;63.70;99859.78;6189505;23;20005;-73
2022/06/23 04:07:30;;;;;;;0.98;0.88;;;;;;;14.19;63.66;99863.31;6191593;23;20651;-71
2022/06/23 04:10:14;;;;;;;0.47;0.47;;;;;;;14.20;63.33;99853.97;6216362;23;19997;-70
2022/06/23 04:12:53;;;;;;;1.13;0.75;;;;;;;14.23;63.91;99861.59;6218194;23;19997;-72
2022/06/23 04:15:28;;;;;;;0.88;0.80;;;;;;;14.17;63.79;99840.81;6218526;23;20007;-72
2022/06/23 04:18:04;;;;;;;0.80;0.80;;;;;;;14.20;63.72;99845.72;6216727;23;20047;-72
2022/06/23 04:20:50;;;;;;;1.50;0.65;;;;;;;14.37;63.79;99861.59;6191512;23;20431;-72
2022/06/23 04:23:23;;;;;;;1.25;0.77;;;;;;;14.43;63.67;99858.44;6188315;23;20008;-72
2022/06/23 04:26:00;;;;;;;2.83;0.80;;;;;;;14.52;63.78;99852.25;6216417;23;20004;-72
2022/06/23 04:28:44;;;;;;;1.00;0.90;;;;;;;14.48;63.54;99852.84;6189699;23;20086;-71
2022/06/23 04:31:16;;;;;;;0.95;0.70;;;;;;;14.55;63.48;99840.63;6165994;23;20004;-72
2022/06/23 04:33:47;;;;;;;1.10;0.73;;;;;;;14.74;62.88;99830.31;6190111;23;20305;-72
2022/06/23 04:36:21;;;;;;;2.10;1.05;;;;;;;14.94;62.33;99845.59;6189597;23;20088;-70
2022/06/23 04:39:00;;;;;;;0.85;0.85;;;;;;;14.98;62.62;99854.03;6190055;23;20005;-73
2022/06/23 04:41:43;;;;;;;0.65;0.65;;;;;;;15.08;62.16;99853.78;6189854;23;20001;-71
2022/06/23 04:44:27;;;;;;;1.35;1.15;;;;;;;15.16;62.05;99839.28;6188201;23;20013;-71
2022/06/23 04:47:10;;;;;;;2.38;1.15;;;;;;;15.24;61.61;99834.16;6215880;23;20084;-72
2022/06/23 04:49:50;;;;;;;0.90;0.80;;;;;;;15.22;61.66;99836.44;6219185;23;20012;-71
2022/06/23 04:52:35;;;;;;;1.45;0.85;;;;;;;15.26;62.02;99837.41;6217706;23;20073;-73
2022/06/23 04:55:29;;;;;;;;;;;;;;;15.43;61.62;99856.84;6217808;23;20054;-73
2022/06/23 04:58:23;;;;;;;1.00;0.80;;;;;;;15.44;61.75;99850.22;6190469;23;20479;-73
2022/06/23 05:00:51;;;;;;;1.15;1.00;;;;;;;15.63;61.20;99863.78;6215778;23;20084;-72
2022/06/23 05:03:28;;;;;;;1.98;1.00;;;;;;;15.63;61.41;99841.75;6188967;23;20008;-71
2022/06/23 05:06:40;;;;;;;0.50;0.50;;;;;;;15.81;61.43;99856.50;6217675;23;20075;-71
2022/06/23 05:09:20;;;;;;;0.70;0.60;;;;;;;15.98;61.21;99857.72;6216604;23;20028;-72
2022/06/23 05:12:01;;;;;;;0.60;0.60;;;;;;;16.10;60.40;99855.19;6190692;23;20008;-72
2022/06/23 05:14:31;;;;;;;1.50;0.80;;;;;;;16.36;60.44;99871.84;6217295;23;20051;-72
2022/06/23 05:17:13;;;;;;;1.15;0.70;;;;;;;16.47;59.88;99869.63;6217548;23;20119;-73
2022/06/23 05:19:48;;;;;;;1.17;0.68;;;;;;;16.50;59.80;99851.59;6215205;23;20055;-72
2022/06/23 05:22:44;;;;;;;0.70;0.70;;;;;;;16.60;59.96;99867.06;6216025;23;20432;-72
2022/06/23 05:25:15;;;;;;;1.08;0.88;;;;;;;16.64;59.85;99857.00;6188961;23;20015;-72
2022/06/23 05:27:47;;;;;;;1.67;0.88;;;;;;;16.49;59.88;99834.25;6190129;23;20031;-71
2022/06/23 05:30:24;;;;;;;2.53;0.80;;;;;;;16.54;60.05;99860.88;6213897;23;20020;-71
2022/06/23 05:32:58;;;;;;;1.45;0.85;;;;;;;16.44;59.93;99833.56;6216498;23;20435;-73
2022/06/23 05:35:46;;;;;;;1.23;0.98;;;;;;;16.53;60.07;99835.22;6189617;23;20012;-72
2022/06/23 05:38:43;;;;;;;2.45;0.95;;;;;;;16.77;59.59;99845.03;6214900;23;20008;-71
2022/06/23 05:41:18;;;;;;;3.03;0.90;;;;;;;16.90;59.08;99835.81;6154817;23;20017;-71
2022/06/23 05:43:47;;;;;;;0.95;0.80;;;;;;;17.26;58.71;99843.00;6217245;23;20027;-71
2022/06/23 05:46:22;;;;;;;1.40;0.77;;;;;;;17.44;58.56;99838.25;6216961;23;20485;-72
2022/06/23 05:49:00;;;;;;;0.88;0.75;;;;;;;17.84;57.45;99853.81;6190548;23;20032;-71
2022/06/23 05:51:57;;;;;;;1.25;0.80;;;;;;;17.91;56.92;99837.56;6189721;23;20036;-71
2022/06/23 05:54:21;;;;;;;1.58;0.77;;;;;;;18.25;56.31;99852.44;6216588;23;20435;-71
2022/06/23 05:57:01;;;;;;;0.60;0.60;;;;;;;18.33;55.91;99841.66;6189086;23;20112;-73
2022/06/23 05:59:35;;;;;;;1.17;0.70;;;;;;;18.42;56.29;99847.97;6215649;23;20547;-73
2022/06/23 06:02:17;;;;;;;1.20;0.88;;;;;;;18.53;55.57;99851.97;6187964;23;20008;-73
2022/06/23 06:04:56;;;;;;;1.60;0.90;;;;;;;18.47;55.35;99828.38;6216804;23;20024;-72
2022/06/23 06:07:27;;;;;;;1.00;0.90;;;;;;;18.74;55.59;99840.13;6217513;23;20024;-73
2022/06/23 06:09:56;;;;;;;2.55;1.48;;;;;;;18.81;54.64;99834.88;6218104;23;20004;-71
2022/06/23 06:12:31;;;;;;;1.52;1.00;;;;;;;18.88;54.79;99835.19;6215924;23;20008;-72
2022/06/23 06:15:10;;;;;;;1.52;0.90;;;;;;;19.00;54.61;99842.75;6216328;23;20027;-71
2022/06/23 06:17:36;;;;;;;0.75;0.75;;;;;;;19.04;54.82;99845.66;6218481;23;20007;-71
2022/06/23 06:20:08;;;;;;;1.67;0.75;;;;;;;19.07;54.01;99842.22;6190507;23;20004;-71
2022/06/23 06:22:42;;;;;;;0.77;0.77;;;;;;;19.12;54.56;99850.34;6191378;23;20005;-72
2022/06/23 06:25:29;;;;;;;;;;;;;;;;;;;;;
2022/06/23 06:28:01;;;;;;;0.73;0.60;;;;;;;19.10;53.57;99847.06;6218648;23;20091;-71
2022/06/23 06:30:36;;;;;;;1.17;0.60;;;;;;;18.88;54.08;99829.66;6187374;23;20015;-72
2022/06/23 06:33:03;;;;;;;1.77;1.10;;;;;;;18.87;54.42;99822.47;6190094;23;20008;-72
2022/06/23 06:35:40;;;;;;;2.55;1.45;;;;;;;18.97;54.29;99833.16;6193119;23;20465;-73
2022/06/23 06:38:12;;;;;;;1.30;1.10;;;;;;;18.87;54.02;99825.25;6217388;23;20005;-71
2022/06/23 06:40:40;;;;;;;2.78;1.00;;;;;;;18.97;53.89;99826.81;6215977;23;20012;-70
2022/06/23 06:43:21;;;;;;;1.55;0.80;;;;;;;18.92;54.26;99813.97;6216022;23;19997;-73
2022/06/23 06:45:54;;;;;;;1.83;0.80;;;;;;;19.07;53.62;99809.78;6215515;23;20004;-72
2022/06/23 06:48:26;;;;;;;1.67;0.55;;;;;;;19.28;53.51;99820.84;6216364;23;20004;-69
2022/06/23 06:50:57;;;;;;;1.80;0.90;;;;;;;19.47;53.01;99822.31;6216106;23;20289;-71
2022/06/23 06:53:45;;;;;;;1.15;0.70;;;;;;;19.56;53.01;99817.50;6217004;23;20012;-71
2022/06/23 06:56:23;;;;;;;1.48;0.70;;;;;;;19.72;52.16;99823.19;6217134;23;20004;-74
2022/06/23 06:59:10;;;;;;;2.92;0.80;;;;;;;19.87;51.78;99827.31;6218105;23;20012;-73
2022/06/23 07:01:41;;;;;;;2.05;1.00;;;;;;;20.05;51.29;99823.19;6216818;23;20000;-71
2022/06/23 07:04:33;;;;;;;3.15;0.68;;;;;;;20.30;50.54;99833.53;6219900;23;20216;-75
2022/06/23 07:21:28;;;;;;;1.30;0.90;;;;;;;21.29;48.60;99831.44;5846115;24;20018;-74
2022/06/23 07:28:20;;;;;;;1.35;0.77;;;;;;;21.23;48.42;99821.72;5838977;24;20784;-75
2022/06/23 07:31:33;;;;;;;;;;;;;;;;;;;;;
2022/06/23 07:34:26;;;;;;;1.92;0.90;;;;;;;21.56;47.86;99812.34;5787681;24;20121;-73
2022/06/23 07:37:53;;;;;;;1.50;1.02;;;;;;;21.73;47.45;99814.81;5840118;24;20015;-72
2022/06/23 07:50:36;;;;;;;1.65;1.13;;;;;;;23.47;44.80;99814.88;5856960;24;20028;-72
2022/06/23 08:04:53;;;;;;;1.23;0.90;;;;;;;23.80;44.17;99802.38;5980103;23;20012;-73
2022/06/23 08:18:48;;;;;;;0.98;0.60;;;;;;;25.49;41.27;99804.09;5982637;24;20377;-74
2022/06/23 08:28:06;;;;;;;;;;;;;;;;;;;;;
2022/06/23 08:30:46;;;;;;;;;;;;;;;;;;;;;
2022/06/23 08:33:32;;;;;;;;;;;;;;;;;;;;;
2022/06/23 08:40:29;;;;;;;;;;;;;;;;;;;;;
2022/06/23 08:50:53;;;;;;;;;;;;;;;;;;;;;
2022/06/23 09:12:13;;;;;;;1.45;0.77;;;;;;;26.64;36.42;99804.34;5945170;24;20012;-72
2022/06/23 09:25:35;;;;;;;;;;;;;;;;;;;;;
2022/06/23 09:32:15;;;;;;;;;;;;;;;;;;;;;
2022/06/23 09:39:01;;;;;;;2.15;1.23;;;;;;;28.00;33.12;99761.94;5852084;24;20077;-72
2022/06/23 09:41:33;;;;;;;2.97;1.10;;;;;;;28.11;33.12;99775.19;5870510;24;20013;-75
2022/06/23 09:48:27;;;;;;;2.25;0.88;;;;;;;27.87;33.48;99767.13;5977291;23;20014;-72
2022/06/23 10:01:41;;;;;;;3.17;1.48;;;;;;;28.28;32.74;99763.13;6135418;23;20510;-73
2022/06/23 10:04:25;;;;;;;2.05;1.30;;;;;;;28.28;32.33;99768.75;6186025;23;20028;-71
2022/06/23 10:07:10;;;;;;;4.15;1.42;;;;;;;28.31;32.60;99773.56;6156405;23;20019;-72
2022/06/23 10:09:57;;;;;;;3.63;1.63;;;;;;;28.50;32.13;99769.56;6183200;23;20005;-74
2022/06/23 10:12:40;;;;;;;3.08;1.80;;;;;;;28.35;32.37;99763.13;6182204;23;20007;-75
2022/06/23 10:15:11;;;;;;;2.97;1.58;;;;;;;28.29;32.23;99766.78;6183173;23;20008;-74
2022/06/23 10:18:12;;;;;;;3.53;1.40;;;;;;;28.25;32.68;99763.16;6183119;23;20087;-72
2022/06/23 10:21:07;;;;;;;3.22;1.30;;;;;;;28.33;32.66;99759.94;6158151;23;20020;-72
2022/06/23 10:23:54;;;;;;;2.28;1.33;;;;;;;28.27;33.04;99767.16;6183249;23;20005;-72
2022/06/23 10:26:28;;;;;;;3.45;1.30;;;;;;;28.17;33.38;99763.16;6183724;23;20086;-75
2022/06/23 10:29:19;;;;;;;3.63;1.70;;;;;;;28.01;33.72;99763.56;6183707;23;19997;-73
2022/06/23 10:32:23;;;;;;;2.00;1.42;;;;;;;27.75;34.00;99769.53;6184338;23;20012;-73
2022/06/23 10:35:05;;;;;;;4.43;2.13;;;;;;;27.41;34.65;99767.03;6156528;23;20083;-73
2022/06/23 10:38:04;;;;;;;2.90;1.77;;;;;;;26.95;35.14;99758.03;6181597;23;20012;-75
2022/06/23 10:40:38;;;;;;;5.32;1.63;;;;;;;26.75;35.56;99765.97;6183884;23;20005;-74
2022/06/23 10:43:19;;;;;;;3.35;1.83;;;;;;;26.40;36.06;99761.72;6181572;23;20089;-72
2022/06/23 10:46:02;;;;;;;2.75;1.70;;;;;;;26.05;36.81;99754.66;6159726;23;20076;-72
2022/06/23 10:48:55;;;;;;;4.40;2.03;;;;;;;25.75;37.40;99754.78;6154563;23;20423;-73
2022/06/23 10:51:42;;;;;;;2.90;1.70;;;;;;;25.55;37.70;99740.19;6182105;23;20001;-72
2022/06/23 10:54:26;;;;;;;2.47;1.90;;;;;;;25.55;37.88;99754.16;6159472;23;20005;-72
2022/06/23 10:57:28;;;;;;;2.83;1.92;;;;;;;25.48;38.61;99752.13;6157952;23;20013;-72
2022/06/23 11:00:19;;;;;;;7.30;2.10;;;;;;;25.50;38.04;99743.34;6159380;23;21018;-72
2022/06/23 11:03:06;;;;;;;7.47;2.25;;;;;;;25.55;38.34;99743.81;6188657;23;20428;-72
2022/06/23 11:05:41;;;;;;;7.35;3.42;;;;;;;25.50;39.06;99755.34;6186964;23;19997;-72
2022/06/23 11:08:26;;;;;;;4.35;3.05;;;;;;;25.44;38.85;99751.28;6186345;23;20016;-72
2022/06/23 11:11:09;;;;;;;3.97;2.55;;;;;;;25.44;39.54;99751.28;6161461;23;20012;-72
2022/06/23 11:13:54;;;;;;;3.78;2.03;;;;;;;25.48;39.72;99745.69;6183715;23;20008;-72
2022/06/23 11:16:22;;;;;;;;;;;;;;;25.54;39.29;99750.56;6161701;23;20403;-72
2022/06/23 11:18:53;;;;;;;3.75;1.77;;;;;;;25.47;40.83;99746.91;6161176;23;19908;-74
2022/06/23 11:22:09;;;;;;;3.15;1.42;;;;;;;25.27;40.90;99719.88;6158597;23;20008;-72
2022/06/23 11:25:02;;;;;;;3.47;2.00;;;;;;;25.33;41.45;99755.94;6158911;23;20503;-71
2022/06/23 11:31:03;;;;;;;3.70;1.98;;;;;;;25.67;42.50;99753.09;6163877;23;20001;-72
2022/06/23 11:44:58;;;;;;;3.30;1.80;;;;;;;28.44;39.66;99731.00;6125164;23;20017;-74
2022/06/23 11:51:40;;;;;;;2.08;1.10;;;;;;;30.46;36.95;99751.16;6105411;23;20053;-72
2022/06/23 11:54:51;;;;;;;;;;;;;;;;;;;;;
2022/06/23 11:57:19;;;;;;;2.42;1.35;;;;;;;31.54;35.10;99748.22;6125544;23;20105;-72
2022/06/23 12:00:08;;;;;;;2.17;1.30;;;;;;;31.72;34.81;99748.78;6097027;23;20448;-71
2022/06/23 12:02:54;;;;;;;3.30;2.00;;;;;;;32.45;34.09;99740.69;6178830;23;20005;-72
2022/06/23 12:05:38;;;;;;;3.50;1.52;;;;;;;33.28;32.77;99744.72;6190299;23;20001;-71
2022/06/23 12:08:24;;;;;;;1.35;0.98;;;;;;;34.15;31.72;99751.19;6163761;23;20028;-73
2022/06/23 12:11:13;;;;;;;1.77;1.13;;;;;;;35.15;30.29;99761.84;6189615;23;20012;-74
2022/06/23 12:13:51;;;;;;;1.77;1.00;;;;;;;35.69;29.15;99753.69;6188607;23;20432;-73
2022/06/23 12:16:19;;;;;;;2.05;1.30;;;;;;;35.35;29.12;99735.28;6189639;23;20064;-74
2022/06/23 12:19:03;;;;;;;5.22;1.98;;;;;;;34.65;28.63;99749.06;6189612;23;20004;-74
2022/06/23 12:22:01;;;;;;;2.63;1.60;;;;;;;33.99;29.72;99740.66;6161264;23;20092;-73
2022/06/23 12:24:45;;;;;;;4.63;1.70;;;;;;;33.45;30.10;99734.22;6188605;23;20013;-74
2022/06/23 12:27:32;;;;;;;3.13;1.75;;;;;;;32.89;30.79;99732.97;6162921;23;20005;-73
2022/06/23 12:30:09;;;;;;;2.70;1.95;;;;;;;32.67;31.13;99729.00;6160586;23;20020;-73
2022/06/23 12:33:05;;;;;;;2.42;1.38;;;;;;;33.88;30.18;99741.72;6162197;23;20079;-73
2022/06/23 12:36:12;;;;;;;3.13;1.60;;;;;;;35.18;28.43;99729.69;6188632;23;20449;-73
2022/06/23 12:38:56;;;;;;;2.88;1.98;;;;;;;36.67;27.34;99735.72;6160084;23;20028;-73
2022/06/23 12:41:48;;;;;;;1.48;1.05;;;;;;;41.35;22.62;99741.22;6187228;23;20001;-73
2022/06/23 12:44:45;;;;;;;2.08;1.13;;;;;;;44.60;19.54;99745.38;6159067;23;20023;-72
2022/06/23 12:47:21;;;;;;;3.10;1.13;;;;;;;48.78;16.03;99722.28;6138976;23;20004;-73
2022/06/23 12:50:11;;;;;;;2.00;0.80;;;;;;;52.83;13.45;99718.13;6160608;23;20332;-74
2022/06/23 12:52:58;;;;;;;5.07;1.48;;;;;;;54.05;10.60;99726.56;6185467;23;20004;-72
2022/06/23 12:55:43;;;;;;;3.28;1.10;;;;;;;50.59;12.35;99718.84;6195146;23;20035;-71
2022/06/23 12:58:28;;;;;;;1.40;0.90;;;;;;;47.57;14.14;99692.50;6216253;23;20039;-76
2022/06/23 13:01:08;;;;;;;2.05;1.00;;;;;;;45.00;16.04;99695.66;6213766;23;20064;-75
2022/06/23 13:03:50;;;;;;;2.15;1.02;;;;;;;43.99;16.71;99702.75;6190188;23;20008;-74
2022/06/23 13:06:36;;;;;;;2.25;1.40;;;;;;;42.56;17.85;99688.53;6217545;23;20557;-74
2022/06/23 13:09:24;;;;;;;1.60;0.80;;;;;;;44.08;17.40;99693.88;6216657;23;20084;-75
2022/06/23 13:12:22;;;;;;;1.85;1.13;;;;;;;44.79;16.65;99698.78;6189676;23;20026;-74
2022/06/23 13:15:08;;;;;;;0.98;0.68;;;;;;;46.69;15.90;99689.34;6191026;23;20035;-75
2022/06/23 13:18:02;;;;;;;1.25;0.98;;;;;;;45.65;15.79;99686.66;6217843;23;20080;-73
2022/06/23 13:20:34;;;;;;;0.68;0.63;;;;;;;42.30;17.97;99674.94;6190726;23;20012;-73
2022/06/23 13:23:10;;;;;;;2.15;1.38;;;;;;;39.09;20.37;99680.84;6189839;23;20096;-73
2022/06/23 13:25:43;;;;;;;2.15;1.30;;;;;;;35.75;23.79;99660.91;6189116;23;20004;-74
2022/06/23 13:28:26;;;;;;;2.22;1.17;;;;;;;33.87;25.71;99660.72;6191386;23;20008;-73
2022/06/23 13:30:55;;;;;;;2.03;1.00;;;;;;;32.50;28.04;99652.47;6191805;23;20087;-74
2022/06/23 13:33:54;;;;;;;1.10;1.00;;;;;;;31.43;28.69;99635.41;6192182;23;20075;-74
2022/06/23 13:36:44;;;;;;;0.75;0.70;;;;;;;30.67;29.92;99644.16;6189902;23;20080;-74
2022/06/23 13:39:28;;;;;;;1.75;1.00;;;;;;;29.99;31.28;99635.22;6191382;23;20009;-74
2022/06/23 13:42:09;;;;;;;3.72;1.27;;;;;;;29.51;32.50;99645.28;6218063;23;20004;-74
2022/06/23 13:45:02;;;;;;;3.97;1.42;;;;;;;28.69;34.34;99636.13;6191627;23;20339;-74
2022/06/23 13:47:33;;;;;;;3.25;1.52;;;;;;;28.32;35.35;99643.06;6219259;23;20031;-74
2022/06/23 13:50:17;;;;;;;2.20;1.42;;;;;;;27.80;35.68;99631.50;6192464;23;20054;-75
2022/06/23 13:52:54;;;;;;;2.47;1.27;;;;;;;27.44;36.34;99634.34;6192432;23;20084;-74
2022/06/23 13:55:31;;;;;;;2.78;1.73;;;;;;;27.06;38.70;99633.84;6193053;23;20024;-75
2022/06/23 13:58:19;;;;;;;2.72;1.80;;;;;;;26.56;38.86;99626.06;6189414;23;20019;-74
2022/06/23 14:03:53;;;;;;;3.85;1.88;;;;;;;26.20;40.59;99634.31;6219381;23;20038;-76
2022/06/23 14:06:41;;;;;;;5.05;2.30;;;;;;;25.94;41.15;99620.09;6192357;23;20000;-75
2022/06/23 14:09:19;;;;;;;3.45;1.65;;;;;;;25.99;40.80;99629.34;6193236;23;20004;-74
2022/06/23 14:12:00;;;;;;;4.75;1.90;;;;;;;26.09;41.32;99623.03;6192133;23;20172;-77
2022/06/23 14:14:55;;;;;;;3.13;2.00;;;;;;;26.19;41.27;99627.09;6218751;23;20080;-74
2022/06/23 14:17:29;;;;;;;;;;;;;;;26.36;41.10;99626.38;6211242;23;20004;-75
2022/06/23 14:20:11;;;;;;;4.93;2.35;;;;;;;26.53;41.08;99622.03;6192837;23;19935;-74
2022/06/23 14:22:43;;;;;;;3.20;1.95;;;;;;;26.65;40.99;99615.28;6192580;23;20000;-75
2022/06/23 14:25:21;;;;;;;3.22;1.65;;;;;;;26.88;40.69;99617.75;6220001;23;20005;-76
2022/06/23 14:27:57;;;;;;;4.65;2.25;;;;;;;26.98;41.19;99628.25;6194362;23;20010;-74
2022/06/23 14:30:46;;;;;;;6.63;2.70;;;;;;;26.85;41.35;99621.38;6221040;23;20079;-74
2022/06/23 14:33:23;;;;;;;6.97;3.25;;;;;;;26.75;41.92;99616.53;6220468;23;20008;-72
2022/06/23 14:36:03;;;;;;;2.38;1.90;;;;;;;26.67;41.50;99612.09;6194463;23;20015;-76
2022/06/23 14:39:05;;;;;;;5.63;2.33;;;;;;;26.97;41.55;99606.16;6220433;23;20008;-75
2022/06/23 14:41:42;;;;;;;2.90;1.80;;;;;;;27.42;40.74;99600.25;6221124;23;20007;-74
2022/06/23 14:44:14;;;;;;;1.92;1.20;;;;;;;27.97;39.70;99602.59;6194947;23;20084;-74
2022/06/23 14:47:06;;;;;;;3.72;2.30;;;;;;;28.01;39.76;99592.16;6218954;23;20012;-75
2022/06/23 14:50:03;;;;;;;4.55;2.72;;;;;;;27.66;40.22;99599.41;6192759;23;20007;-74
2022/06/23 14:52:44;;;;;;;7.47;3.05;;;;;;;27.48;40.51;99593.00;6221277;23;20001;-74
2022/06/23 14:55:19;;;;;;;3.88;2.53;;;;;;;26.96;41.95;99585.75;6188512;23;20024;-73
2022/06/23 14:57:50;;;;;;;5.70;2.70;;;;;;;26.91;41.70;99586.16;6164404;23;20012;-74
2022/06/23 15:01:00;;;;;;;2.85;1.50;;;;;;;27.30;40.95;99578.97;6190483;23;20482;-75
2022/06/23 15:03:34;;;;;;;1.45;1.23;;;;;;;27.92;40.23;99563.69;6076747;23;20017;-74
2022/06/23 15:06:11;;;;;;;4.50;2.03;;;;;;;28.38;38.74;99582.41;6181519;23;20420;-73
2022/06/23 15:08:58;;;;;;;5.95;2.15;;;;;;;28.58;39.18;99590.34;6163311;23;20464;-74
2022/06/23 15:11:33;;;;;;;3.20;2.10;;;;;;;28.41;39.54;99575.16;6163929;23;20017;-73
2022/06/23 15:14:25;;;;;;;3.42;2.30;;;;;;;28.45;39.04;99559.06;6188063;23;20081;-74
2022/06/23 15:16:57;;;;;;;3.65;2.35;;;;;;;28.58;39.08;99579.09;6162354;23;20124;-73
2022/06/23 15:19:39;;;;;;;4.88;1.67;;;;;;;28.40;39.33;99573.56;6190642;23;20012;-73
2022/06/23 15:26:39;;;;;;;;;;;;;;;;;;;;;
2022/06/23 15:33:33;;;;;;;;;;;;;;;;;;;;;
2022/06/23 15:36:24;;;;;;;;;;;;;;;;;;;;;
2022/06/23 15:39:06;;;;;;;4.78;2.35;;;;;;;24.45;47.80;99551.97;6189465;23;20088;-75
2022/06/23 15:41:44;;;;;;;6.10;2.80;;;;;;;24.51;48.13;99556.03;6164475;23;20461;-77